createdAt,value
2023-08-27T00:00:15.640Z,5.72
2023-08-27T00:02:43.108Z,6.22
2023-08-27T00:05:11.117Z,5.15
2023-08-27T00:07:38.613Z,6.82
2023-08-27T00:10:06.574Z,5.47
2023-08-27T00:12:34.083Z,6.78
2023-08-27T00:15:01.764Z,5.57
2023-08-27T00:17:29.205Z,5.80
2023-08-27T00:19:56.747Z,5.50
2023-08-27T00:22:24.171Z,5.40
2023-08-27T00:24:51.669Z,4.85
2023-08-27T00:27:19.092Z,6.18
2023-08-27T00:29:47.609Z,6.10
2023-08-27T00:32:26.054Z,5.13
2023-08-27T00:34:54.129Z,5.18
2023-08-27T00:37:23.459Z,5.15
2023-08-27T00:39:51.090Z,6.25
2023-08-27T00:42:18.598Z,6.07
2023-08-27T00:44:46.148Z,5.68
2023-08-27T00:47:14.734Z,5.57
2023-08-27T00:49:43.732Z,5.97
2023-08-27T00:52:12.151Z,6.03
2023-08-27T00:54:42.171Z,4.95
2023-08-27T00:57:10.605Z,5.47
2023-08-27T00:59:38.156Z,6.28
2023-08-27T01:02:06.139Z,4.88
2023-08-27T01:04:33.673Z,5.30
2023-08-27T01:07:08.850Z,5.30
2023-08-27T01:09:45.948Z,5.30
2023-08-27T01:12:21.440Z,5.18
2023-08-27T01:14:51.832Z,6.32
2023-08-27T01:17:23.307Z,5.38
2023-08-27T01:19:51.201Z,6.97
2023-08-27T01:22:18.985Z,6.97
2023-08-27T01:24:46.450Z,6.68
2023-08-27T01:27:37.191Z,4.80
2023-08-27T01:30:21.929Z,5.25
2023-08-27T01:33:19.425Z,6.03
2023-08-27T01:35:47.893Z,5.40
2023-08-27T01:38:15.485Z,6.28
2023-08-27T01:40:43.014Z,5.53
2023-08-27T01:43:10.430Z,6.68
2023-08-27T01:45:37.914Z,6.15
2023-08-27T01:48:05.877Z,6.18
2023-08-27T01:50:33.761Z,5.63
2023-08-27T01:53:01.367Z,6.55
2023-08-27T01:55:29.268Z,6.00
2023-08-27T01:57:56.778Z,5.18
2023-08-27T02:00:24.360Z,7.88
2023-08-27T02:02:52.397Z,6.55
2023-08-27T02:05:19.918Z,5.50
2023-08-27T02:07:47.430Z,5.25
2023-08-27T02:10:14.983Z,5.95
2023-08-27T02:12:42.436Z,5.50
2023-08-27T02:15:10.259Z,5.72
2023-08-27T02:17:39.536Z,5.90
2023-08-27T02:20:11.507Z,6.60
2023-08-27T02:22:39.009Z,5.05
2023-08-27T02:25:07.777Z,5.50
2023-08-27T02:27:35.341Z,5.05
2023-08-27T02:30:02.817Z,4.95
2023-08-27T02:32:30.420Z,5.53
2023-08-27T02:34:58.081Z,6.30
2023-08-27T02:37:26.145Z,5.18
2023-08-27T02:39:53.458Z,4.97
2023-08-27T02:42:21.069Z,5.07
2023-08-27T02:44:48.423Z,5.70
2023-08-27T02:47:15.927Z,5.07
2023-08-27T02:49:43.844Z,4.90
2023-08-27T02:52:11.249Z,4.88
2023-08-27T02:54:38.694Z,5.70
2023-08-27T02:57:06.443Z,5.88
2023-08-27T02:59:34.320Z,4.82
2023-08-27T03:02:01.876Z,4.97
2023-08-27T03:04:29.443Z,5.32
2023-08-27T03:06:56.814Z,5.20
2023-08-27T03:09:24.288Z,5.38
2023-08-27T03:11:51.747Z,5.50
2023-08-27T03:14:19.463Z,5.13
2023-08-27T03:16:46.929Z,5.20
2023-08-27T03:19:14.418Z,5.70
2023-08-27T03:21:41.873Z,5.00
2023-08-27T03:24:09.452Z,4.55
2023-08-27T03:26:37.107Z,4.28
2023-08-27T03:29:05.425Z,5.07
2023-08-27T03:31:32.862Z,4.13
2023-08-27T03:34:00.383Z,5.43
2023-08-27T03:36:27.975Z,4.40
2023-08-27T03:38:56.012Z,3.88
2023-08-27T03:41:23.857Z,4.35
2023-08-27T03:43:51.433Z,4.35
2023-08-27T03:46:19.021Z,4.80
2023-08-27T03:48:46.498Z,5.20
2023-08-27T03:51:13.844Z,5.30
2023-08-27T03:53:41.454Z,6.38
2023-08-27T03:56:08.785Z,5.63
2023-08-27T03:58:36.534Z,5.75
2023-08-27T04:01:04.153Z,4.28
2023-08-27T04:03:31.651Z,6.15
2023-08-27T04:05:59.189Z,5.60
2023-08-27T04:08:26.705Z,5.63
2023-08-27T04:10:54.917Z,4.47
2023-08-27T04:13:22.363Z,4.70
2023-08-27T04:16:05.380Z,8.65
2023-08-27T04:18:34.508Z,5.00
2023-08-27T04:21:02.398Z,5.53
2023-08-27T04:23:30.082Z,5.07
2023-08-27T04:25:57.828Z,5.65
2023-08-27T04:28:25.334Z,4.57
2023-08-27T04:30:52.856Z,5.20
2023-08-27T04:33:20.401Z,5.30
2023-08-27T04:35:51.084Z,5.13
2023-08-27T04:38:18.657Z,4.50
2023-08-27T04:40:51.774Z,4.50
2023-08-27T04:43:19.504Z,6.35
2023-08-27T04:45:47.061Z,6.40
2023-08-27T04:48:14.563Z,4.70
2023-08-27T04:50:45.952Z,5.25
2023-08-27T04:53:13.813Z,4.72
2023-08-27T04:55:41.314Z,5.30
2023-08-27T04:58:10.055Z,4.95
2023-08-27T05:00:37.559Z,4.70
2023-08-27T05:03:05.465Z,6.32
2023-08-27T05:05:33.040Z,5.95
2023-08-27T05:08:00.988Z,5.28
2023-08-27T05:10:28.717Z,5.68
2023-08-27T05:12:56.335Z,5.25
2023-08-27T05:15:23.712Z,6.07
2023-08-27T05:17:51.144Z,7.05
2023-08-27T05:20:18.939Z,7.45
2023-08-27T05:22:46.347Z,6.15
2023-08-27T05:25:13.849Z,6.78
2023-08-27T05:27:45.774Z,6.30
2023-08-27T05:30:15.994Z,5.68
2023-08-27T05:32:44.747Z,7.15
2023-08-27T05:35:12.785Z,7.03
2023-08-27T05:37:40.595Z,8.77
2023-08-27T05:40:10.106Z,7.88
2023-08-27T05:42:37.973Z,7.93
2023-08-27T05:45:05.773Z,9.20
2023-08-27T05:47:33.696Z,6.68
2023-08-27T05:50:01.097Z,7.95
2023-08-27T05:52:28.721Z,8.13
2023-08-27T05:54:56.166Z,10.05
2023-08-27T05:57:23.618Z,9.10
2023-08-27T05:59:51.238Z,8.32
2023-08-27T06:02:19.304Z,8.13
2023-08-27T06:04:46.966Z,8.77
2023-08-27T06:07:14.573Z,9.55
2023-08-27T06:09:42.220Z,9.77
2023-08-27T06:12:09.686Z,11.82
2023-08-27T06:14:37.195Z,8.85
2023-08-27T06:17:05.019Z,9.25
2023-08-27T06:19:46.438Z,11.63
2023-08-27T06:22:17.699Z,10.60
2023-08-27T06:24:45.986Z,9.43
2023-08-27T06:27:16.290Z,9.98
2023-08-27T06:32:17.579Z,9.15
2023-08-27T06:34:45.634Z,9.15
2023-08-27T06:37:13.270Z,9.07
2023-08-27T06:39:40.799Z,9.05
2023-08-27T06:42:08.432Z,12.98
2023-08-27T06:44:35.933Z,7.68
2023-08-27T06:47:03.349Z,9.32
2023-08-27T06:49:30.746Z,9.55
2023-08-27T06:51:58.299Z,10.23
2023-08-27T06:54:25.977Z,9.52
2023-08-27T06:56:53.421Z,9.20
2023-08-27T06:59:20.869Z,9.93
2023-08-27T07:01:48.535Z,10.40
2023-08-27T07:04:16.085Z,10.52
2023-08-27T07:06:43.604Z,7.50
2023-08-27T07:09:11.197Z,8.98
2023-08-27T07:11:39.792Z,10.65
2023-08-27T07:14:07.768Z,11.30
2023-08-27T07:16:35.308Z,9.23
2023-08-27T07:19:02.767Z,9.18
2023-08-27T07:21:30.176Z,10.68
2023-08-27T07:23:58.749Z,12.00
2023-08-27T07:26:26.722Z,10.68
2023-08-27T07:28:54.180Z,9.68
2023-08-27T07:31:21.647Z,9.57
2023-08-27T07:33:49.032Z,8.02
2023-08-27T07:36:16.544Z,9.60
2023-08-27T07:38:45.059Z,9.18
2023-08-27T07:41:15.133Z,12.43
2023-08-27T07:43:43.066Z,11.48
2023-08-27T07:46:10.570Z,11.18
2023-08-27T07:48:37.971Z,10.85
2023-08-27T07:51:05.560Z,8.80
2023-08-27T07:53:33.236Z,13.98
2023-08-27T07:56:00.590Z,9.45
2023-08-27T07:58:30.451Z,12.45
2023-08-27T08:01:04.197Z,11.95
2023-08-27T08:03:32.581Z,10.70
2023-08-27T08:06:00.148Z,9.25
2023-08-27T08:08:27.481Z,9.98
2023-08-27T08:10:58.318Z,11.77
2023-08-27T08:13:26.321Z,9.75
2023-08-27T08:15:54.313Z,12.93
2023-08-27T08:18:21.899Z,11.00
2023-08-27T08:20:49.271Z,11.20
2023-08-27T08:23:16.875Z,10.52
2023-08-27T08:25:44.999Z,11.30
2023-08-27T08:28:12.454Z,12.25
2023-08-27T08:30:46.996Z,12.65
2023-08-27T08:33:14.581Z,10.63
2023-08-27T08:35:43.005Z,11.43
2023-08-27T08:38:10.654Z,10.23
2023-08-27T08:40:48.412Z,11.68
2023-08-27T08:43:28.457Z,11.52
2023-08-27T08:46:07.832Z,12.48
2023-08-27T08:48:43.653Z,11.77
2023-08-27T08:51:13.579Z,11.63
2023-08-27T08:53:46.437Z,12.40
2023-08-27T08:56:24.545Z,12.38
2023-08-27T08:58:58.094Z,12.90
2023-08-27T09:01:26.462Z,10.38
2023-08-27T09:03:54.128Z,12.88
2023-08-27T09:06:22.360Z,11.70
2023-08-27T09:08:54.109Z,12.18
2023-08-27T09:11:22.180Z,9.32
2023-08-27T09:13:49.735Z,16.23
2023-08-27T09:16:17.107Z,10.40
2023-08-27T09:18:44.860Z,11.75
2023-08-27T09:21:12.707Z,11.60
2023-08-27T09:23:40.634Z,11.38
2023-08-27T09:26:08.961Z,10.00
2023-08-27T09:28:36.755Z,13.45
2023-08-27T09:31:04.008Z,11.70
2023-08-27T09:33:44.349Z,12.02
2023-08-27T09:38:40.940Z,11.15
2023-08-27T09:41:17.625Z,11.07
2023-08-27T09:43:57.340Z,11.35
2023-08-27T09:46:24.554Z,11.43
2023-08-27T09:49:03.012Z,13.18
2023-08-27T09:51:30.990Z,9.85
2023-08-27T09:53:58.596Z,11.98
2023-08-27T09:56:27.161Z,12.00
2023-08-27T09:58:55.754Z,10.40
2023-08-27T10:01:24.806Z,11.18
2023-08-27T10:03:52.426Z,10.77
2023-08-27T10:06:20.320Z,10.85
2023-08-27T10:08:50.134Z,9.70
2023-08-27T10:11:19.221Z,8.63
2023-08-27T10:13:46.611Z,13.38
2023-08-27T10:16:14.799Z,10.13
2023-08-27T10:18:42.710Z,12.98
2023-08-27T10:21:12.935Z,9.90
2023-08-27T10:23:41.196Z,10.93
2023-08-27T10:26:09.996Z,9.02
2023-08-27T10:28:37.760Z,10.05
2023-08-27T10:31:05.347Z,9.63
2023-08-27T10:33:33.690Z,9.32
2023-08-27T10:36:07.862Z,8.60
2023-08-27T10:38:38.618Z,8.60
2023-08-27T10:41:07.929Z,8.50
2023-08-27T10:43:36.623Z,9.50
2023-08-27T10:46:17.896Z,11.00
2023-08-27T10:48:53.151Z,12.68
2023-08-27T10:51:23.003Z,9.80
2023-08-27T10:53:50.649Z,9.93
2023-08-27T10:56:34.650Z,9.63
2023-08-27T10:59:04.508Z,10.10
2023-08-27T11:01:38.971Z,11.10
2023-08-27T11:04:09.064Z,9.10
2023-08-27T11:06:46.200Z,9.23
2023-08-27T11:09:23.190Z,10.00
2023-08-27T11:12:05.670Z,9.27
2023-08-27T11:14:40.793Z,11.13
2023-08-27T11:17:08.913Z,11.75
2023-08-27T11:19:38.548Z,10.80
2023-08-27T11:22:15.551Z,11.93
2023-08-27T11:24:50.273Z,10.52
2023-08-27T11:27:19.676Z,8.15
2023-08-27T11:29:55.063Z,10.40
2023-08-27T11:32:22.896Z,11.38
2023-08-27T11:34:52.858Z,11.45
2023-08-27T11:37:23.590Z,10.98
2023-08-27T11:39:51.138Z,11.07
2023-08-27T11:42:19.053Z,10.85
2023-08-27T11:44:51.314Z,9.77
2023-08-27T11:47:20.427Z,10.45
2023-08-27T11:49:48.237Z,11.32
2023-08-27T11:52:16.536Z,9.70
2023-08-27T11:54:44.934Z,13.13
2023-08-27T11:57:12.645Z,9.82
2023-08-27T11:59:40.615Z,9.75
2023-08-27T12:02:09.042Z,10.38
2023-08-27T12:04:36.997Z,8.93
2023-08-27T12:07:06.673Z,8.20
2023-08-27T12:09:35.107Z,8.27
2023-08-27T12:12:07.922Z,10.65
2023-08-27T12:14:36.485Z,9.32
2023-08-27T12:17:06.860Z,7.78
2023-08-27T12:19:34.753Z,8.13
2023-08-27T12:22:02.245Z,10.60
2023-08-27T12:24:36.508Z,9.57
2023-08-27T12:27:08.695Z,9.57
2023-08-27T12:29:39.743Z,8.48
2023-08-27T12:32:20.842Z,8.02
2023-08-27T12:34:53.159Z,7.47
2023-08-27T12:37:21.839Z,8.48
2023-08-27T12:39:49.617Z,8.38
2023-08-27T12:42:17.472Z,9.02
2023-08-27T12:44:50.685Z,8.88
2023-08-27T12:47:18.716Z,9.65
2023-08-27T12:49:46.745Z,9.00
2023-08-27T12:52:14.799Z,10.10
2023-08-27T12:54:43.095Z,10.23
2023-08-27T12:57:12.260Z,8.18
2023-08-27T12:59:39.764Z,8.38
2023-08-27T13:02:08.870Z,8.25
2023-08-27T13:04:36.519Z,8.65
2023-08-27T13:07:04.076Z,9.82
2023-08-27T13:09:31.822Z,12.70
2023-08-27T13:11:59.284Z,12.20
2023-08-27T13:14:26.721Z,11.23
2023-08-27T13:16:54.286Z,11.02
2023-08-27T13:19:21.705Z,11.25
2023-08-27T13:21:49.706Z,11.88
2023-08-27T13:24:18.407Z,11.88
2023-08-27T13:26:50.578Z,10.98
2023-08-27T13:29:18.060Z,12.48
2023-08-27T13:31:45.645Z,10.80
2023-08-27T13:34:13.393Z,11.77
2023-08-27T13:36:40.798Z,12.23
2023-08-27T13:39:08.403Z,10.30
2023-08-27T13:41:38.218Z,11.40
2023-08-27T13:44:06.732Z,11.30
2023-08-27T13:46:34.509Z,11.38
2023-08-27T13:49:02.340Z,8.73
2023-08-27T13:51:30.095Z,9.93
2023-08-27T13:53:58.047Z,8.75
2023-08-27T13:56:25.559Z,9.85
2023-08-27T13:58:53.106Z,10.65
2023-08-27T14:01:25.895Z,11.25
2023-08-27T14:03:53.801Z,9.88
2023-08-27T14:06:21.460Z,10.57
2023-08-27T14:08:49.490Z,9.90
2023-08-27T14:11:16.978Z,9.82
2023-08-27T14:13:45.799Z,10.32
2023-08-27T14:16:13.818Z,9.10
2023-08-27T14:18:41.497Z,9.00
2023-08-27T14:21:10.311Z,8.23
2023-08-27T14:23:38.324Z,10.57
2023-08-27T14:26:05.690Z,8.20
2023-08-27T14:28:32.988Z,8.05
2023-08-27T14:31:00.336Z,9.65
2023-08-27T14:33:27.480Z,8.93
2023-08-27T14:35:55.033Z,9.95
2023-08-27T14:38:22.328Z,8.55
2023-08-27T14:40:49.834Z,10.18
2023-08-27T14:43:17.267Z,10.30
2023-08-27T14:45:44.735Z,9.52
2023-08-27T14:48:12.351Z,8.75
2023-08-27T14:50:39.803Z,9.38
2023-08-27T14:53:08.478Z,8.57
2023-08-27T14:55:35.937Z,9.75
2023-08-27T14:58:03.700Z,8.07
2023-08-27T15:00:31.515Z,8.40
2023-08-27T15:02:59.621Z,8.52
2023-08-27T15:05:27.039Z,9.68
2023-08-27T15:07:54.486Z,9.90
2023-08-27T15:10:22.009Z,9.07
2023-08-27T15:12:49.508Z,8.98
2023-08-27T15:15:17.270Z,9.45
2023-08-27T15:17:44.788Z,9.48
2023-08-27T15:20:12.667Z,9.48
2023-08-27T15:22:40.248Z,9.27
2023-08-27T15:25:08.160Z,8.80
2023-08-27T15:27:35.613Z,9.07
2023-08-27T15:30:06.259Z,7.95
2023-08-27T15:32:33.877Z,9.25
2023-08-27T15:35:02.542Z,8.43
2023-08-27T15:37:30.782Z,8.10
2023-08-27T15:39:58.989Z,9.80
2023-08-27T15:42:32.026Z,8.60
2023-08-27T15:45:00.177Z,8.48
2023-08-27T15:47:32.733Z,11.25
2023-08-27T15:50:00.879Z,9.07
2023-08-27T15:52:28.640Z,7.90
2023-08-27T15:54:57.091Z,8.77
2023-08-27T15:57:24.524Z,8.35
2023-08-27T15:59:51.942Z,11.50
2023-08-27T16:02:19.421Z,12.95
2023-08-27T16:04:46.965Z,15.38
2023-08-27T16:07:14.457Z,13.35
2023-08-27T16:09:41.869Z,17.83
2023-08-27T16:12:09.542Z,18.60
2023-08-27T16:14:37.134Z,18.25
2023-08-27T16:17:06.187Z,19.15
2023-08-27T16:19:33.594Z,17.05
2023-08-27T16:22:01.006Z,18.67
2023-08-27T16:24:28.801Z,16.65
2023-08-27T16:26:56.308Z,17.10
2023-08-27T16:29:23.763Z,16.30
2023-08-27T16:31:51.211Z,14.60
2023-08-27T16:34:18.727Z,12.45
2023-08-27T16:36:46.215Z,14.60
2023-08-27T16:39:14.453Z,13.82
2023-08-27T16:41:41.900Z,14.40
2023-08-27T16:44:09.413Z,13.20
2023-08-27T16:46:37.015Z,12.25
2023-08-27T16:49:04.881Z,12.38
2023-08-27T16:51:32.500Z,14.82
2023-08-27T16:54:00.108Z,12.23
2023-08-27T16:56:27.669Z,12.32
2023-08-27T16:58:55.111Z,12.07
2023-08-27T17:01:22.595Z,11.70
2023-08-27T17:03:50.291Z,10.93
2023-08-27T17:06:18.410Z,11.27
2023-08-27T17:08:45.856Z,9.45
2023-08-27T17:11:17.459Z,9.18
2023-08-27T17:13:45.065Z,10.52
2023-08-27T17:16:12.691Z,9.05
2023-08-27T17:18:40.091Z,9.70
2023-08-27T17:21:07.637Z,10.07
2023-08-27T17:23:35.140Z,10.20
2023-08-27T17:26:02.610Z,11.23
2023-08-27T17:28:30.161Z,11.25
2023-08-27T17:30:59.015Z,12.73
2023-08-27T17:33:26.866Z,12.25
2023-08-27T17:35:54.259Z,14.90
2023-08-27T17:38:21.900Z,13.45
2023-08-27T17:40:52.707Z,14.88
2023-08-27T17:43:20.196Z,19.77
2023-08-27T17:45:47.909Z,18.90
2023-08-27T17:48:15.631Z,19.83
2023-08-27T17:50:46.264Z,22.33
2023-08-27T17:53:13.827Z,20.40
2023-08-27T17:55:41.280Z,17.83
2023-08-27T17:58:08.945Z,18.80
2023-08-27T18:00:36.446Z,17.23
2023-08-27T18:03:06.215Z,14.10
2023-08-27T18:05:33.780Z,14.25
2023-08-27T18:08:01.485Z,15.30
2023-08-27T18:10:29.086Z,14.38
2023-08-27T18:12:56.388Z,13.77
2023-08-27T18:15:23.888Z,14.05
2023-08-27T18:17:51.285Z,14.88
2023-08-27T18:20:19.060Z,15.27
2023-08-27T18:22:46.463Z,15.93
2023-08-27T18:25:14.059Z,14.48
2023-08-27T18:27:42.057Z,13.25
2023-08-27T18:30:09.911Z,12.38
2023-08-27T18:32:39.000Z,10.75
2023-08-27T18:35:07.164Z,9.18
2023-08-27T18:37:34.599Z,9.85
2023-08-27T18:40:01.975Z,11.60
2023-08-27T18:42:33.721Z,12.50
2023-08-27T18:45:01.661Z,11.73
2023-08-27T18:47:29.202Z,11.82
2023-08-27T18:49:56.866Z,14.38
2023-08-27T18:52:24.368Z,13.30
2023-08-27T18:54:51.886Z,13.50
2023-08-27T18:57:21.105Z,14.27
2023-08-27T18:59:51.608Z,13.13
2023-08-27T19:02:19.064Z,14.45
2023-08-27T19:04:47.058Z,13.57
2023-08-27T19:07:14.362Z,11.90
2023-08-27T19:09:44.242Z,9.57
2023-08-27T19:12:11.741Z,9.07
2023-08-27T19:14:39.293Z,8.38
2023-08-27T19:17:06.890Z,8.52
2023-08-27T19:19:34.403Z,7.68
2023-08-27T19:22:02.106Z,9.40
2023-08-27T19:24:29.588Z,8.32
2023-08-27T19:26:57.029Z,7.75
2023-08-27T19:29:24.609Z,7.10
2023-08-27T19:31:52.033Z,6.70
2023-08-27T19:34:19.763Z,6.93
2023-08-27T19:36:47.210Z,6.85
2023-08-27T19:39:14.738Z,7.10
2023-08-27T19:41:43.257Z,6.90
2023-08-27T19:44:10.601Z,7.30
2023-08-27T19:46:39.093Z,6.78
2023-08-27T19:49:06.552Z,6.68
2023-08-27T19:51:35.462Z,7.18
2023-08-27T19:54:03.078Z,8.02
2023-08-27T19:56:31.264Z,7.35
2023-08-27T19:58:58.921Z,7.13
2023-08-27T20:01:26.354Z,6.45
2023-08-27T20:03:53.770Z,7.35
2023-08-27T20:06:21.230Z,6.53
2023-08-27T20:08:48.800Z,7.72
2023-08-27T20:11:16.411Z,8.32
2023-08-27T20:13:43.874Z,7.93
2023-08-27T20:16:11.432Z,6.50
2023-08-27T20:18:39.070Z,7.05
2023-08-27T20:21:06.596Z,7.32
2023-08-27T20:23:33.984Z,10.82
2023-08-27T20:26:02.001Z,9.13
2023-08-27T20:28:29.710Z,6.47
2023-08-27T20:30:57.215Z,7.43
2023-08-27T20:33:24.938Z,7.05
2023-08-27T20:35:52.588Z,8.85
2023-08-27T20:38:20.108Z,6.38
2023-08-27T20:40:47.503Z,6.80
2023-08-27T20:43:16.399Z,7.50
2023-08-27T20:45:44.588Z,5.93
2023-08-27T20:48:12.430Z,5.65
2023-08-27T20:50:40.511Z,6.50
2023-08-27T20:53:08.321Z,7.50
2023-08-27T20:55:35.994Z,6.32
2023-08-27T20:58:04.144Z,6.00
2023-08-27T21:00:31.552Z,5.55
2023-08-27T21:02:59.025Z,8.48
2023-08-27T21:05:26.959Z,6.28
2023-08-27T21:07:54.422Z,7.00
2023-08-27T21:10:24.079Z,8.73
2023-08-27T21:12:51.538Z,7.38
2023-08-27T21:15:19.137Z,7.15
2023-08-27T21:17:46.832Z,6.43
2023-08-27T21:20:14.560Z,5.72
2023-08-27T21:22:42.216Z,6.68
2023-08-27T21:25:09.989Z,6.47
2023-08-27T21:27:37.390Z,6.65
2023-08-27T21:30:05.048Z,6.13
2023-08-27T21:32:32.762Z,5.82
2023-08-27T21:35:00.438Z,5.38
2023-08-27T21:37:28.153Z,5.88
2023-08-27T21:39:55.584Z,5.53
2023-08-27T21:42:23.106Z,6.47
2023-08-27T21:44:50.412Z,6.05
2023-08-27T21:47:17.849Z,6.85
2023-08-27T21:49:45.272Z,6.75
2023-08-27T21:52:12.736Z,5.55
2023-08-27T21:54:40.331Z,6.55
2023-08-27T21:57:07.990Z,6.55
2023-08-27T21:59:35.505Z,8.18
2023-08-27T22:02:03.263Z,6.05
2023-08-27T22:04:30.773Z,6.75
2023-08-27T22:06:58.308Z,6.07
2023-08-27T22:09:26.172Z,7.07
2023-08-27T22:11:53.482Z,6.63
2023-08-27T22:14:21.660Z,5.97
2023-08-27T22:16:49.339Z,7.53
2023-08-27T22:19:23.526Z,6.38
2023-08-27T22:21:52.108Z,6.38
2023-08-27T22:24:19.458Z,5.43
2023-08-27T22:26:47.416Z,6.47
2023-08-27T22:29:15.078Z,6.80
2023-08-27T22:31:42.524Z,5.43
2023-08-27T22:34:10.197Z,5.78
2023-08-27T22:36:37.703Z,4.57
2023-08-27T22:39:05.171Z,5.45
2023-08-27T22:41:32.574Z,4.40
2023-08-27T22:44:00.130Z,5.32
2023-08-27T22:46:28.106Z,4.50
2023-08-27T22:48:55.596Z,4.28
2023-08-27T22:51:24.288Z,3.88
2023-08-27T22:53:51.895Z,3.28
2023-08-27T22:56:19.755Z,3.45
2023-08-27T22:58:47.324Z,4.25
2023-08-27T23:01:15.117Z,3.92
2023-08-27T23:03:42.650Z,3.47
2023-08-27T23:06:10.153Z,3.55
2023-08-27T23:08:37.697Z,3.70
2023-08-27T23:11:05.619Z,5.10
2023-08-27T23:13:33.176Z,3.40
2023-08-27T23:16:00.755Z,4.03
2023-08-27T23:18:28.336Z,4.03
2023-08-27T23:20:55.883Z,4.22
2023-08-27T23:23:24.147Z,5.53
2023-08-27T23:25:52.856Z,5.38
2023-08-27T23:28:20.878Z,5.10
2023-08-27T23:30:48.313Z,4.07
2023-08-27T23:33:15.920Z,5.18
2023-08-27T23:35:43.450Z,5.20
2023-08-27T23:38:10.916Z,5.00
2023-08-27T23:40:39.330Z,4.45
2023-08-27T23:43:06.771Z,4.50
2023-08-27T23:45:34.279Z,5.10
2023-08-27T23:48:01.907Z,4.57
2023-08-27T23:50:29.412Z,4.80
2023-08-27T23:52:56.914Z,5.47
2023-08-27T23:55:24.373Z,7.38
2023-08-27T23:57:51.973Z,6.25
